Time;durP1;ratioP1;P1;durP2;ratioP2;P2;SDS_P1;SDS_P2;PMS_P1;PMS_P2;Temp;Humidity;BMP_temperature;BMP_pressure;BME280_temperature;BME280_humidity;BME280_pressure;Samples;Min_cycle;Max_cycle;Signal;HPM_P1;HPM_P2
2023/09/30 00:00:54;;;;;;;;;;;24.50;73.30;;;;;;5128318;27;19923;-48
2023/09/30 00:03:20;;;;;;;;;;;24.50;73.30;;;;;;5129391;28;19912;-51
2023/09/30 00:05:46;;;;;;;;;;;24.50;73.30;;;;;;5127887;28;19933;-48
2023/09/30 00:08:12;;;;;;;;;;;24.50;73.40;;;;;;5129396;27;19918;-47
2023/09/30 00:10:38;;;;;;;;;;;24.50;73.40;;;;;;5128030;28;19908;-51
2023/09/30 00:13:06;;;;;;;;;;;24.50;73.40;;;;;;5126916;28;19918;-52
2023/09/30 00:15:35;;;;;;;;;;;24.50;73.50;;;;;;5126198;28;19923;-48
2023/09/30 00:18:01;;;;;;;;;;;24.50;73.50;;;;;;5125614;28;20659;-48
2023/09/30 00:20:27;;;;;;;;;;;24.50;73.50;;;;;;5123439;27;19907;-49
2023/09/30 00:22:53;;;;;;;;;;;24.50;73.60;;;;;;5118719;28;20364;-49
2023/09/30 00:25:20;;;;;;;;;;;24.50;73.50;;;;;;5107708;28;19908;-50
2023/09/30 00:27:49;;;;;;;;;;;24.50;73.40;;;;;;5125547;28;19912;-49
2023/09/30 00:30:15;;;;;;;;;;;24.50;73.40;;;;;;5125714;28;19914;-48
2023/09/30 00:32:41;;;;;;;;;;;24.50;73.40;;;;;;5107774;28;19939;-50
2023/09/30 00:35:13;;;;;;;;;;;24.50;73.30;;;;;;5123857;28;19933;-48
2023/09/30 00:37:39;;;;;;;;;;;24.50;73.30;;;;;;5125728;28;20299;-49
2023/09/30 00:40:05;;;;;;;;;;;24.50;73.20;;;;;;5125448;28;19911;-48
2023/09/30 00:42:31;;;;;;;;;;;24.50;73.10;;;;;;5141230;27;19919;-49
2023/09/30 00:44:57;;;;;;;;;;;24.50;73.10;;;;;;5106917;28;19911;-48
2023/09/30 00:47:23;;;;;;;;;;;24.50;73.10;;;;;;5125933;28;19911;-48
2023/09/30 00:49:50;;;;;;;;;;;24.40;73.10;;;;;;5106839;28;19911;-49
2023/09/30 00:52:16;;;;;;;;;;;24.40;73.00;;;;;;5121270;28;19919;-49
2023/09/30 00:54:43;;;;;;;;;;;24.50;73.10;;;;;;5099230;27;19911;-47
2023/09/30 00:57:09;;;;;;;;;;;24.40;73.10;;;;;;5124897;28;19981;-50
2023/09/30 00:59:35;;;;;;;;;;;24.50;73.30;;;;;;5099027;28;19979;-51
2023/09/30 01:02:01;;;;;;;;;;;24.40;73.10;;;;;;5124881;28;19907;-49
2023/09/30 01:04:27;;;;;;;;;;;24.40;73.20;;;;;;5141024;27;19907;-51
2023/09/30 01:06:53;;;;;;;;;;;24.40;73.10;;;;;;5140360;27;19939;-51
2023/09/30 01:09:20;;;;;;;;;;;24.40;73.00;;;;;;5124956;28;19919;-49
2023/09/30 01:11:46;;;;;;;;;;;24.40;72.90;;;;;;5124530;27;19914;-53
2023/09/30 01:14:25;;;;;;;;;;;24.40;72.80;;;;;;5140751;27;19912;-49
2023/09/30 01:16:51;;;;;;;;;;;24.40;72.70;;;;;;5124401;28;19916;-51
2023/09/30 01:19:17;;;;;;;;;;;24.40;72.70;;;;;;5124775;28;19979;-52
2023/09/30 01:21:48;;;;;;;;;;;24.40;72.80;;;;;;5124647;27;19911;-50
2023/09/30 01:24:14;;;;;;;;;;;24.40;72.70;;;;;;5124299;28;19911;-49
2023/09/30 01:26:42;;;;;;;;;;;24.40;72.70;;;;;;5124265;28;19912;-47
2023/09/30 01:29:11;;;;;;;;;;;24.40;72.70;;;;;;5122998;28;19912;-49
2023/09/30 01:31:37;;;;;;;;;;;24.40;72.70;;;;;;5124357;27;19907;-49
2023/09/30 01:34:03;;;;;;;;;;;24.30;72.70;;;;;;5124011;28;19915;-52
2023/09/30 01:36:29;;;;;;;;;;;24.30;72.70;;;;;;5123873;28;19915;-49
2023/09/30 01:38:55;;;;;;;;;;;24.30;72.60;;;;;;5124051;28;19919;-49
2023/09/30 01:41:20;;;;;;;;;;;24.30;72.60;;;;;;5124537;28;20004;-48
2023/09/30 01:43:47;;;;;;;;;;;24.30;72.70;;;;;;5124034;28;19912;-50
2023/09/30 01:46:12;;;;;;;;;;;24.30;72.70;;;;;;5123768;28;19941;-49
2023/09/30 01:48:38;;;;;;;;;;;24.30;72.60;;;;;;5123778;28;19915;-51
2023/09/30 01:51:04;;;;;;;;;;;24.30;72.60;;;;;;5123970;28;19979;-49
2023/09/30 01:53:30;;;;;;;;;;;24.30;72.40;;;;;;5123847;28;19930;-49
2023/09/30 01:55:56;;;;;;;;;;;24.30;72.20;;;;;;5123537;28;19919;-50
2023/09/30 01:58:22;;;;;;;;;;;24.30;72.10;;;;;;5123628;28;20030;-49
2023/09/30 02:00:48;;;;;;;;;;;24.30;72.00;;;;;;5123234;28;19918;-48
2023/09/30 02:03:13;;;;;;;;;;;24.20;71.80;;;;;;5124257;28;19912;-48
2023/09/30 02:05:39;;;;;;;;;;;24.20;71.90;;;;;;5122767;28;19912;-50
2023/09/30 02:08:05;;;;;;;;;;;24.20;71.90;;;;;;5116904;28;19944;-50
2023/09/30 02:10:33;;;;;;;;;;;24.20;71.90;;;;;;5105383;28;20402;-50
2023/09/30 02:13:05;;;;;;;;;;;24.20;71.90;;;;;;5124045;28;19920;-50
2023/09/30 02:15:31;;;;;;;;;;;24.20;71.90;;;;;;5123604;27;20395;-49
2023/09/30 02:17:57;;;;;;;;;;;24.20;71.90;;;;;;5122434;28;19983;-48
2023/09/30 02:20:25;;;;;;;;;;;24.20;71.90;;;;;;5123811;28;19911;-51
2023/09/30 02:22:52;;;;;;;;;;;24.20;72.00;;;;;;5123826;28;19915;-49
2023/09/30 02:25:18;;;;;;;;;;;24.10;71.80;;;;;;5123166;28;19924;-48
2023/09/30 02:27:44;;;;;;;;;;;24.20;72.00;;;;;;5123280;28;20070;-52
2023/09/30 02:30:11;;;;;;;;;;;24.20;71.90;;;;;;5121269;27;19911;-48
2023/09/30 02:32:43;;;;;;;;;;;24.20;72.00;;;;;;5122954;28;19915;-52
2023/09/30 02:35:10;;;;;;;;;;;24.10;71.80;;;;;;5120113;28;20288;-50
2023/09/30 02:37:36;;;;;;;;;;;24.10;71.80;;;;;;5122322;28;19919;-51
2023/09/30 02:40:05;;;;;;;;;;;24.10;71.70;;;;;;5122766;28;19912;-51
2023/09/30 02:42:31;;;;;;;;;;;24.10;71.70;;;;;;5123218;28;19907;-50
2023/09/30 02:44:59;;;;;;;;;;;24.10;71.60;;;;;;5122997;28;19912;-51
2023/09/30 02:47:25;;;;;;;;;;;24.10;71.70;;;;;;5123211;28;19933;-48
2023/09/30 02:49:50;;;;;;;;;;;24.10;71.70;;;;;;5122919;28;19912;-49
2023/09/30 02:52:16;;;;;;;;;;;24.10;71.70;;;;;;5123666;28;19918;-50
2023/09/30 02:54:42;;;;;;;;;;;24.10;71.80;;;;;;5123021;28;19919;-48
2023/09/30 02:57:09;;;;;;;;;;;24.10;71.80;;;;;;5118878;28;19923;-49
2023/09/30 02:59:36;;;;;;;;;;;24.10;71.70;;;;;;5122765;28;19918;-48
2023/09/30 03:02:03;;;;;;;;;;;24.00;71.70;;;;;;5122767;28;19912;-49
2023/09/30 03:04:28;;;;;;;;;;;24.00;71.70;;;;;;5123444;28;20375;-51
2023/09/30 03:06:56;;;;;;;;;;;24.00;71.70;;;;;;5121911;28;19916;-49
2023/09/30 03:09:22;;;;;;;;;;;24.00;71.70;;;;;;5123036;28;19907;-49
2023/09/30 03:11:48;;;;;;;;;;;24.00;71.70;;;;;;5122832;28;19919;-48
2023/09/30 03:14:14;;;;;;;;;;;24.00;71.70;;;;;;5123289;28;19923;-49
2023/09/30 03:16:41;;;;;;;;;;;24.00;71.70;;;;;;5122600;28;19919;-48
2023/09/30 03:19:08;;;;;;;;;;;24.00;71.60;;;;;;5120869;28;19912;-52
2023/09/30 03:21:35;;;;;;;;;;;24.00;71.60;;;;;;5122642;28;19982;-50
2023/09/30 03:24:02;;;;;;;;;;;24.00;71.60;;;;;;5104452;28;19990;-50
2023/09/30 03:26:31;;;;;;;;;;;24.00;71.60;;;;;;5122679;28;19911;-48
2023/09/30 03:28:57;;;;;;;;;;;24.00;71.70;;;;;;5119791;28;20300;-49
2023/09/30 03:31:23;;;;;;;;;;;23.90;71.50;;;;;;5123375;28;19907;-48
2023/09/30 03:33:53;;;;;;;;;;;23.90;71.60;;;;;;5122638;28;19953;-49
2023/09/30 03:36:25;;;;;;;;;;;23.90;71.50;;;;;;5114590;28;19920;-49
2023/09/30 03:38:54;;;;;;;;;;;23.90;71.50;;;;;;5122302;28;20003;-48
2023/09/30 03:41:20;;;;;;;;;;;23.90;71.70;;;;;;5122047;28;19911;-50
2023/09/30 03:43:47;;;;;;;;;;;23.90;71.60;;;;;;5121278;28;20322;-47
2023/09/30 03:46:13;;;;;;;;;;;23.80;71.50;;;;;;5104248;28;19907;-48
2023/09/30 03:48:39;;;;;;;;;;;23.80;71.60;;;;;;5122737;28;19911;-50
2023/09/30 03:51:14;;;;;;;;;;;23.80;71.60;;;;;;5115057;28;19918;-49
2023/09/30 03:53:43;;;;;;;;;;;23.80;71.60;;;;;;5119667;27;19912;-47
2023/09/30 03:56:13;;;;;;;;;;;23.80;71.60;;;;;;5117179;28;19966;-49
2023/09/30 03:58:42;;;;;;;;;;;23.80;71.70;;;;;;5133619;27;19916;-48
2023/09/30 04:01:11;;;;;;;;;;;23.80;71.70;;;;;;5112323;27;19911;-48
2023/09/30 04:03:39;;;;;;;;;;;23.80;71.70;;;;;;5123468;27;20001;-48
2023/09/30 04:06:05;;;;;;;;;;;23.80;71.60;;;;;;5125190;28;19915;-49
2023/09/30 04:08:33;;;;;;;;;;;23.80;71.70;;;;;;5141029;27;19946;-49
2023/09/30 04:10:59;;;;;;;;;;;23.80;71.70;;;;;;5125476;28;20029;-53
2023/09/30 04:13:25;;;;;;;;;;;23.80;71.80;;;;;;5118962;28;19912;-50
2023/09/30 04:15:51;;;;;;;;;;;23.70;71.80;;;;;;5122572;28;19916;-49
2023/09/30 04:18:20;;;;;;;;;;;23.70;71.70;;;;;;5122078;28;19943;-49
2023/09/30 04:20:46;;;;;;;;;;;23.70;71.80;;;;;;5117099;27;19908;-48
2023/09/30 04:23:13;;;;;;;;;;;23.70;71.80;;;;;;5126223;27;19912;-50
2023/09/30 04:25:39;;;;;;;;;;;23.70;71.80;;;;;;5127070;27;19907;-48
2023/09/30 04:28:07;;;;;;;;;;;23.70;71.70;;;;;;5118428;28;19912;-50
2023/09/30 04:30:33;;;;;;;;;;;23.70;71.90;;;;;;5126280;28;19911;-51
2023/09/30 04:32:59;;;;;;;;;;;23.70;71.90;;;;;;5124293;28;19919;-49
2023/09/30 04:35:30;;;;;;;;;;;23.70;71.80;;;;;;5117615;28;19989;-49
2023/09/30 04:37:58;;;;;;;;;;;23.60;71.70;;;;;;5125937;27;19996;-52
2023/09/30 04:40:26;;;;;;;;;;;23.60;71.80;;;;;;5115292;28;19908;-49
2023/09/30 04:42:58;;;;;;;;;;;23.60;71.70;;;;;;5123982;28;19912;-48
2023/09/30 04:45:27;;;;;;;;;;;23.60;71.90;;;;;;5118424;28;19911;-50
2023/09/30 04:47:53;;;;;;;;;;;23.60;71.80;;;;;;5123883;27;19911;-49
2023/09/30 04:50:21;;;;;;;;;;;23.60;71.80;;;;;;5125355;28;20009;-48
2023/09/30 04:52:47;;;;;;;;;;;23.60;71.70;;;;;;5124624;28;19933;-49
2023/09/30 04:55:15;;;;;;;;;;;23.60;71.80;;;;;;5124733;27;20001;-48
2023/09/30 04:57:44;;;;;;;;;;;23.60;71.80;;;;;;5125596;27;20002;-48
2023/09/30 05:00:13;;;;;;;;;;;23.60;71.90;;;;;;5117532;28;19999;-48
2023/09/30 05:02:39;;;;;;;;;;;23.60;71.90;;;;;;5104409;28;20482;-50
2023/09/30 05:05:08;;;;;;;;;;;23.50;71.90;;;;;;5121798;28;19911;-48
2023/09/30 05:07:34;;;;;;;;;;;23.50;71.90;;;;;;5124062;28;19912;-49
2023/09/30 05:10:00;;;;;;;;;;;23.50;72.00;;;;;;5123529;28;19911;-50
2023/09/30 05:12:25;;;;;;;;;;;23.50;71.90;;;;;;5105321;28;19918;-49
2023/09/30 05:14:52;;;;;;;;;;;23.50;72.10;;;;;;5116359;28;19908;-50
2023/09/30 05:17:18;;;;;;;;;;;23.50;71.90;;;;;;5124672;28;20734;-48
2023/09/30 05:19:44;;;;;;;;;;;23.50;71.90;;;;;;5124462;28;19918;-49
2023/09/30 05:22:10;;;;;;;;;;;23.50;71.90;;;;;;5123975;28;19911;-51
2023/09/30 05:24:36;;;;;;;;;;;23.50;71.90;;;;;;5124605;27;19912;-48
2023/09/30 05:27:02;;;;;;;;;;;23.40;71.90;;;;;;5095181;28;20330;-51
2023/09/30 05:29:28;;;;;;;;;;;23.40;72.00;;;;;;5112842;28;19933;-49
2023/09/30 05:31:54;;;;;;;;;;;23.40;72.00;;;;;;5112186;27;19922;-49
2023/09/30 05:34:20;;;;;;;;;;;23.40;72.00;;;;;;5093194;28;20002;-49
2023/09/30 05:36:46;;;;;;;;;;;23.40;72.00;;;;;;5109854;28;19916;-50
2023/09/30 05:39:11;;;;;;;;;;;23.40;72.10;;;;;;5111014;28;19919;-50
2023/09/30 05:41:38;;;;;;;;;;;23.40;72.10;;;;;;5111660;28;19919;-48
2023/09/30 05:44:04;;;;;;;;;;;23.40;72.10;;;;;;5111723;28;19911;-49
2023/09/30 05:46:30;;;;;;;;;;;23.30;72.10;;;;;;5112038;28;19923;-49
2023/09/30 05:48:56;;;;;;;;;;;23.30;72.10;;;;;;5111382;28;19908;-49
2023/09/30 05:51:22;;;;;;;;;;;23.30;72.20;;;;;;5092601;28;19911;-50
2023/09/30 05:53:48;;;;;;;;;;;23.30;72.20;;;;;;5112641;28;19960;-49
2023/09/30 05:56:15;;;;;;;;;;;23.30;72.20;;;;;;5117186;28;19927;-48
2023/09/30 05:58:41;;;;;;;;;;;23.30;72.20;;;;;;5123261;28;19919;-52
2023/09/30 06:01:10;;;;;;;;;;;23.30;72.20;;;;;;5116911;28;19974;-49
2023/09/30 06:03:39;;;;;;;;;;;23.30;72.10;;;;;;5124226;28;19914;-50
2023/09/30 06:06:15;;;;;;;;;;;23.30;72.20;;;;;;5139220;27;19915;-49
2023/09/30 06:08:47;;;;;;;;;;;23.30;72.30;;;;;;5123605;28;19912;-51
2023/09/30 06:11:16;;;;;;;;;;;23.20;72.10;;;;;;5122963;28;19943;-49
2023/09/30 06:13:43;;;;;;;;;;;23.20;72.20;;;;;;5120806;28;19914;-49
2023/09/30 06:16:11;;;;;;;;;;;23.20;72.20;;;;;;5124011;28;19927;-49
2023/09/30 06:18:36;;;;;;;;;;;23.20;72.10;;;;;;5122753;28;19911;-51
2023/09/30 06:21:03;;;;;;;;;;;23.20;72.20;;;;;;5117577;28;20287;-49
2023/09/30 06:23:29;;;;;;;;;;;23.20;72.30;;;;;;5124202;28;19961;-49
2023/09/30 06:25:56;;;;;;;;;;;23.20;72.30;;;;;;5122648;28;19911;-48
2023/09/30 06:28:26;;;;;;;;;;;23.20;72.30;;;;;;5123482;28;19955;-49
2023/09/30 06:30:52;;;;;;;;;;;23.20;72.30;;;;;;5122875;28;19908;-49
2023/09/30 06:33:18;;;;;;;;;;;23.10;72.30;;;;;;5123634;28;20064;-48
2023/09/30 06:35:50;;;;;;;;;;;23.10;72.30;;;;;;5122761;28;20672;-48
2023/09/30 06:38:22;;;;;;;;;;;23.10;72.30;;;;;;5123065;28;19950;-48
2023/09/30 06:40:47;;;;;;;;;;;23.10;72.30;;;;;;5122658;28;20014;-48
2023/09/30 06:43:16;;;;;;;;;;;23.10;72.20;;;;;;5117440;28;20363;-49
2023/09/30 06:45:43;;;;;;;;;;;23.10;73.10;;;;;;5120514;28;19911;-48
2023/09/30 06:48:12;;;;;;;;;;;23.10;72.30;;;;;;5123146;28;19915;-48
2023/09/30 06:50:45;;;;;;;;;;;23.10;72.40;;;;;;5122447;28;19908;-50
2023/09/30 06:53:10;;;;;;;;;;;23.10;72.40;;;;;;5116469;28;19919;-48
2023/09/30 06:55:37;;;;;;;;;;;23.10;72.40;;;;;;5122224;28;19912;-50
2023/09/30 06:58:07;;;;;;;;;;;23.00;72.40;;;;;;5122810;28;19938;-48
2023/09/30 07:00:33;;;;;;;;;;;23.00;73.10;;;;;;5122618;28;19911;-50
2023/09/30 07:02:59;;;;;;;;;;;23.00;72.50;;;;;;5122898;28;19982;-49
2023/09/30 07:05:25;;;;;;;;;;;23.00;72.50;;;;;;5123311;28;19915;-48
2023/09/30 07:07:51;;;;;;;;;;;23.00;72.40;;;;;;5122376;28;19975;-48
2023/09/30 07:10:17;;;;;;;;;;;23.00;72.40;;;;;;5122230;28;19937;-49
2023/09/30 07:12:42;;;;;;;;;;;23.00;72.50;;;;;;5121269;28;19912;-49
2023/09/30 07:15:09;;;;;;;;;;;22.90;72.50;;;;;;5122769;28;19907;-49
2023/09/30 07:17:35;;;;;;;;;;;22.90;72.60;;;;;;5122366;28;19930;-50
2023/09/30 07:20:01;;;;;;;;;;;22.90;72.60;;;;;;5104208;28;19916;-48
2023/09/30 07:22:27;;;;;;;;;;;22.90;72.60;;;;;;5122823;28;19933;-49
2023/09/30 07:24:53;;;;;;;;;;;22.90;72.60;;;;;;5128613;27;19979;-48
2023/09/30 07:27:19;;;;;;;;;;;22.90;72.60;;;;;;5126396;28;19912;-48
2023/09/30 07:29:45;;;;;;;;;;;22.90;72.60;;;;;;5125176;28;19987;-47
2023/09/30 07:32:10;;;;;;;;;;;22.90;72.60;;;;;;5126495;28;19990;-48
2023/09/30 07:34:36;;;;;;;;;;;22.90;72.60;;;;;;5123857;27;19935;-49
2023/09/30 07:37:03;;;;;;;;;;;22.90;72.60;;;;;;5125782;27;20394;-48
2023/09/30 07:39:29;;;;;;;;;;;22.90;72.70;;;;;;5126194;27;19912;-48
2023/09/30 07:41:55;;;;;;;;;;;22.80;72.60;;;;;;5125540;27;20379;-48
2023/09/30 07:44:21;;;;;;;;;;;22.80;72.60;;;;;;5127443;27;19912;-49
2023/09/30 07:46:47;;;;;;;;;;;22.80;72.60;;;;;;5126974;28;20716;-49
2023/09/30 07:49:13;;;;;;;;;;;22.80;72.60;;;;;;5126416;27;20042;-48
2023/09/30 07:51:41;;;;;;;;;;;22.80;72.60;;;;;;5127472;27;19961;-49
2023/09/30 07:54:07;;;;;;;;;;;22.80;72.70;;;;;;5133545;27;19923;-49
2023/09/30 07:56:34;;;;;;;;;;;22.80;72.70;;;;;;5125661;27;19922;-50
2023/09/30 07:58:59;;;;;;;;;;;22.80;72.80;;;;;;5125434;28;19924;-49
2023/09/30 08:01:25;;;;;;;;;;;22.80;72.70;;;;;;5108239;28;19978;-47
2023/09/30 08:03:51;;;;;;;;;;;22.70;72.70;;;;;;5132832;27;19907;-48
2023/09/30 08:06:17;;;;;;;;;;;22.70;72.70;;;;;;5126874;28;19912;-49
2023/09/30 08:08:43;;;;;;;;;;;22.70;72.70;;;;;;5117897;27;19908;-48
2023/09/30 08:11:09;;;;;;;;;;;22.70;72.70;;;;;;5126212;28;19911;-48
2023/09/30 08:13:35;;;;;;;;;;;22.70;72.80;;;;;;5125963;27;19934;-48
2023/09/30 08:16:00;;;;;;;;;;;22.70;72.80;;;;;;5114583;27;19951;-49
2023/09/30 08:18:26;;;;;;;;;;;22.70;72.80;;;;;;5119127;28;19911;-48
2023/09/30 08:20:52;;;;;;;;;;;22.70;72.90;;;;;;5107487;28;19911;-50
2023/09/30 08:23:18;;;;;;;;;;;22.70;72.80;;;;;;5120669;28;19908;-49
2023/09/30 08:25:44;;;;;;;;;;;22.70;72.90;;;;;;5125434;28;19912;-48
2023/09/30 08:28:10;;;;;;;;;;;22.60;72.80;;;;;;5125955;27;19922;-48
2023/09/30 08:30:37;;;;;;;;;;;22.60;72.90;;;;;;5122380;28;19959;-48
2023/09/30 08:33:03;;;;;;;;;;;22.60;72.90;;;;;;5128863;27;20284;-48
2023/09/30 08:35:30;;;;;;;;;;;22.60;72.90;;;;;;5117222;28;19943;-49
2023/09/30 08:37:55;;;;;;;;;;;22.60;73.00;;;;;;5124900;28;20273;-47
2023/09/30 08:40:21;;;;;;;;;;;22.60;73.00;;;;;;5126054;28;20562;-47
2023/09/30 08:42:49;;;;;;;;;;;22.60;73.00;;;;;;5128420;27;20012;-47
2023/09/30 08:45:14;;;;;;;;;;;22.60;73.00;;;;;;5114012;28;20280;-50
2023/09/30 08:47:40;;;;;;;;;;;22.60;73.00;;;;;;5125772;28;19908;-47
2023/09/30 08:50:08;;;;;;;;;;;22.60;73.00;;;;;;5118786;27;20537;-48
2023/09/30 08:52:34;;;;;;;;;;;22.50;73.00;;;;;;5133579;27;19954;-48
2023/09/30 08:54:59;;;;;;;;;;;22.50;73.00;;;;;;5120095;28;19915;-49
2023/09/30 08:57:25;;;;;;;;;;;22.50;73.00;;;;;;5110453;27;19924;-48
2023/09/30 08:59:52;;;;;;;;;;;22.50;73.00;;;;;;5101116;28;19994;-49
2023/09/30 09:02:18;;;;;;;;;;;22.50;73.00;;;;;;5082570;28;19951;-48
2023/09/30 09:04:47;;;;;;;;;;;22.50;73.10;;;;;;5098505;28;19980;-48
2023/09/30 09:07:13;;;;;;;;;;;22.50;73.10;;;;;;5102631;28;19915;-49
2023/09/30 09:09:38;;;;;;;;;;;22.50;73.80;;;;;;5101244;28;19912;-48
2023/09/30 09:12:05;;;;;;;;;;;22.50;73.10;;;;;;5097693;28;20376;-49
2023/09/30 09:14:38;;;;;;;;;;;22.50;73.10;;;;;;5100151;28;19916;-50
2023/09/30 09:17:06;;;;;;;;;;;22.50;73.20;;;;;;5097524;28;19933;-49
2023/09/30 09:19:31;;;;;;;;;;;22.40;73.10;;;;;;5097120;28;19916;-48
2023/09/30 09:22:01;;;;;;;;;;;22.40;73.10;;;;;;5101657;28;19912;-49
2023/09/30 09:24:30;;;;;;;;;;;22.40;73.10;;;;;;5098950;28;19931;-48
2023/09/30 09:27:09;;;;;;;;;;;22.40;73.20;;;;;;5101031;28;19916;-48
2023/09/30 09:29:36;;;;;;;;;;;22.40;73.20;;;;;;5104106;28;19915;-50
2023/09/30 09:32:15;;;;;;;;;;;22.40;73.20;;;;;;5088313;28;19919;-49
2023/09/30 09:34:43;;;;;;;;;;;22.40;73.20;;;;;;5102368;28;19908;-49
2023/09/30 09:37:15;;;;;;;;;;;22.40;73.20;;;;;;5096631;28;20030;-48
2023/09/30 09:39:57;;;;;;;;;;;22.40;73.30;;;;;;5102957;28;19908;-45
2023/09/30 09:42:24;;;;;;;;;;;22.40;73.30;;;;;;5103383;28;19912;-48
2023/09/30 09:44:49;;;;;;;;;;;22.30;73.20;;;;;;5103161;28;19916;-50
2023/09/30 09:47:15;;;;;;;;;;;22.30;73.30;;;;;;5103495;28;19978;-48
2023/09/30 09:50:01;;;;;;;;;;;22.40;73.40;;;;;;5076929;28;19919;-49
2023/09/30 09:52:27;;;;;;;;;;;22.30;73.30;;;;;;5056205;28;20413;-45
2023/09/30 09:54:53;;;;;;;;;;;22.30;73.30;;;;;;5060482;28;19950;-49
2023/09/30 09:57:19;;;;;;;;;;;22.30;73.40;;;;;;5068785;28;19954;-49
2023/09/30 09:59:47;;;;;;;;;;;22.30;73.40;;;;;;5063600;28;19923;-48
2023/09/30 10:02:14;;;;;;;;;;;22.30;73.40;;;;;;5080747;28;19908;-48
2023/09/30 10:04:46;;;;;;;;;;;22.30;73.40;;;;;;5078054;28;19912;-47
2023/09/30 10:07:20;;;;;;;;;;;22.20;73.30;;;;;;5080152;28;19971;-48
2023/09/30 10:09:47;;;;;;;;;;;22.20;73.30;;;;;;5079934;28;19912;-48
2023/09/30 10:12:14;;;;;;;;;;;22.20;73.30;;;;;;5063086;28;20450;-48
2023/09/30 10:14:40;;;;;;;;;;;22.20;73.30;;;;;;5062701;28;19912;-47
2023/09/30 10:17:06;;;;;;;;;;;22.20;73.40;;;;;;5079897;28;20410;-46
2023/09/30 10:19:32;;;;;;;;;;;22.20;73.40;;;;;;5082576;28;19981;-46
2023/09/30 10:22:19;;;;;;;;;;;22.20;73.30;;;;;;5079909;28;19927;-50
2023/09/30 10:24:46;;;;;;;;;;;22.20;73.30;;;;;;5079745;28;19918;-45
2023/09/30 10:27:34;;;;;;;;;;;22.20;73.40;;;;;;5080289;28;19916;-46
2023/09/30 10:30:22;;;;;;;;;;;22.20;73.40;;;;;;5109654;28;19908;-46
2023/09/30 10:32:51;;;;;;;;;;;22.20;73.40;;;;;;5122418;28;19915;-46
2023/09/30 10:35:17;;;;;;;;;;;22.20;73.40;;;;;;5123243;27;19919;-47
2023/09/30 10:37:44;;;;;;;;;;;22.20;73.40;;;;;;5120504;28;19998;-45
2023/09/30 10:40:10;;;;;;;;;;;22.10;73.40;;;;;;5123755;28;19918;-45
2023/09/30 10:42:46;;;;;;;;;;;22.20;73.40;;;;;;5123324;28;20398;-46
2023/09/30 10:45:30;;;;;;;;;;;22.10;73.40;;;;;;5116897;28;19912;-46
2023/09/30 10:47:57;;;;;;;;;;;22.10;73.40;;;;;;5123053;28;19947;-47
2023/09/30 10:50:41;;;;;;;;;;;22.10;73.40;;;;;;5115015;28;19947;-46
2023/09/30 10:53:07;;;;;;;;;;;22.10;73.50;;;;;;5115465;28;19962;-45
2023/09/30 10:55:33;;;;;;;;;;;22.10;73.40;;;;;;5122619;28;19912;-47
2023/09/30 10:57:59;;;;;;;;;;;22.00;73.40;;;;;;5128254;27;19927;-46
2023/09/30 11:00:24;;;;;;;;;;;22.10;73.40;;;;;;5123006;28;19912;-46
2023/09/30 11:02:51;;;;;;;;;;;22.00;73.40;;;;;;5122476;28;19918;-46
2023/09/30 11:05:17;;;;;;;;;;;22.00;73.40;;;;;;5123006;28;19979;-47
2023/09/30 11:07:44;;;;;;;;;;;22.00;73.50;;;;;;5122595;28;19918;-46
2023/09/30 11:10:11;;;;;;;;;;;22.00;73.50;;;;;;5122906;28;19933;-47
2023/09/30 11:12:37;;;;;;;;;;;22.00;73.60;;;;;;5122148;28;19912;-46
2023/09/30 11:15:03;;;;;;;;;;;22.00;73.50;;;;;;5122514;28;19915;-47
2023/09/30 11:17:29;;;;;;;;;;;22.00;73.60;;;;;;5122550;28;19923;-47
2023/09/30 11:19:55;;;;;;;;;;;22.00;73.60;;;;;;5122207;28;19950;-46
2023/09/30 11:22:21;;;;;;;;;;;22.00;73.60;;;;;;5122578;28;19934;-46
2023/09/30 11:24:47;;;;;;;;;;;22.00;74.30;;;;;;5122291;28;19911;-46
2023/09/30 11:27:13;;;;;;;;;;;22.00;73.60;;;;;;5126443;28;20561;-46
2023/09/30 11:29:48;;;;;;;;;;;21.90;73.60;;;;;;5125424;28;19911;-49
2023/09/30 11:32:23;;;;;;;;;;;21.90;73.60;;;;;;5116530;28;19918;-47
2023/09/30 11:34:49;;;;;;;;;;;21.90;74.30;;;;;;5120632;28;19908;-47
2023/09/30 11:37:15;;;;;;;;;;;21.90;73.60;;;;;;5122560;28;19929;-46
2023/09/30 11:39:41;;;;;;;;;;;21.90;73.70;;;;;;5122443;28;19907;-46
2023/09/30 11:42:14;;;;;;;;;;;21.90;73.60;;;;;;5115476;28;20030;-46
2023/09/30 11:44:44;;;;;;;;;;;21.90;73.60;;;;;;5122297;28;20377;-46
2023/09/30 11:47:11;;;;;;;;;;;21.90;73.70;;;;;;5125690;28;19918;-45
2023/09/30 11:49:38;;;;;;;;;;;21.80;73.60;;;;;;5107207;28;20253;-46
2023/09/30 11:52:04;;;;;;;;;;;21.80;73.60;;;;;;5121198;28;19975;-46
2023/09/30 11:54:56;;;;;;;;;;;21.80;73.70;;;;;;5103439;28;19930;-45
2023/09/30 11:57:22;;;;;;;;;;;21.80;73.80;;;;;;5127098;28;19971;-47
2023/09/30 11:59:47;;;;;;;;;;;21.80;73.70;;;;;;5123684;28;19912;-46
2023/09/30 12:02:17;;;;;;;;;;;21.80;73.80;;;;;;5099193;28;19912;-46
2023/09/30 12:04:43;;;;;;;;;;;21.80;73.80;;;;;;5115130;28;19915;-46
2023/09/30 12:07:09;;;;;;;;;;;21.80;73.70;;;;;;5122235;28;19998;-46
2023/09/30 12:09:37;;;;;;;;;;;21.80;73.70;;;;;;5123688;28;19916;-46
2023/09/30 12:12:03;;;;;;;;;;;21.80;74.00;;;;;;5117999;27;19911;-47
2023/09/30 12:14:32;;;;;;;;;;;21.80;73.70;;;;;;5111802;28;19923;-45
2023/09/30 12:16:58;;;;;;;;;;;21.70;73.70;;;;;;5125354;28;20042;-46
2023/09/30 12:19:24;;;;;;;;;;;21.70;73.80;;;;;;5126222;28;19911;-46
2023/09/30 12:22:10;;;;;;;;;;;21.80;73.80;;;;;;5106999;28;19918;-46
2023/09/30 12:24:36;;;;;;;;;;;21.70;73.80;;;;;;5058395;28;19909;-47
2023/09/30 12:27:02;;;;;;;;;;;21.70;73.80;;;;;;5057604;28;19912;-46
2023/09/30 12:29:28;;;;;;;;;;;21.70;73.80;;;;;;5056986;28;19912;-45
2023/09/30 12:31:54;;;;;;;;;;;21.70;73.80;;;;;;5054737;28;21470;-45
2023/09/30 12:34:20;;;;;;;;;;;21.70;73.90;;;;;;5061747;28;19920;-47
2023/09/30 12:36:47;;;;;;;;;;;21.70;73.90;;;;;;5062073;28;20050;-46
2023/09/30 12:39:13;;;;;;;;;;;21.70;73.80;;;;;;5062395;28;20058;-46
2023/09/30 12:41:42;;;;;;;;;;;21.70;73.90;;;;;;5062547;28;20612;-47
2023/09/30 12:44:08;;;;;;;;;;;21.70;73.90;;;;;;5059532;28;19931;-46
2023/09/30 12:46:36;;;;;;;;;;;21.60;74.50;;;;;;5062602;28;20788;-46
2023/09/30 12:49:02;;;;;;;;;;;21.60;73.80;;;;;;5062074;28;19912;-49
2023/09/30 12:51:29;;;;;;;;;;;21.60;73.90;;;;;;5062195;28;19913;-46
2023/09/30 12:53:54;;;;;;;;;;;21.60;73.80;;;;;;5062118;28;19924;-48
2023/09/30 12:56:20;;;;;;;;;;;21.60;73.90;;;;;;5062036;28;19917;-47
2023/09/30 12:58:46;;;;;;;;;;;21.60;73.80;;;;;;5082029;28;19916;-47
2023/09/30 13:01:12;;;;;;;;;;;21.60;73.90;;;;;;5084355;28;19913;-46
2023/09/30 13:03:38;;;;;;;;;;;21.60;73.90;;;;;;5092039;28;20355;-47
2023/09/30 13:06:04;;;;;;;;;;;21.60;74.00;;;;;;5103835;28;20384;-47
2023/09/30 13:08:33;;;;;;;;;;;21.60;74.00;;;;;;5105308;28;20549;-48
2023/09/30 13:11:02;;;;;;;;;;;21.60;74.00;;;;;;5104532;28;19922;-48
2023/09/30 13:13:33;;;;;;;;;;;21.60;74.00;;;;;;5107554;28;19912;-48
2023/09/30 13:15:59;;;;;;;;;;;21.60;74.00;;;;;;5099556;28;19916;-47
2023/09/30 13:18:25;;;;;;;;;;;21.60;74.10;;;;;;5105279;28;19916;-46
2023/09/30 13:20:52;;;;;;;;;;;21.50;74.00;;;;;;5104882;28;19958;-49
2023/09/30 13:23:18;;;;;;;;;;;21.50;74.00;;;;;;5105003;28;19919;-47
2023/09/30 13:25:44;;;;;;;;;;;21.50;74.10;;;;;;5101034;28;19964;-47
2023/09/30 13:28:10;;;;;;;;;;;21.60;74.10;;;;;;5106846;28;19939;-47
2023/09/30 13:30:36;;;;;;;;;;;21.50;74.10;;;;;;5107731;28;19912;-47
2023/09/30 13:33:02;;;;;;;;;;;21.60;74.10;;;;;;5105987;28;19911;-47
2023/09/30 13:35:28;;;;;;;;;;;21.60;74.10;;;;;;5100525;28;20018;-47
2023/09/30 13:37:54;;;;;;;;;;;21.60;74.10;;;;;;5102480;28;19920;-47
2023/09/30 13:40:19;;;;;;;;;;;21.50;74.10;;;;;;5099307;28;19913;-47
2023/09/30 13:42:46;;;;;;;;;;;21.60;74.20;;;;;;5101740;28;19908;-46
2023/09/30 13:45:12;;;;;;;;;;;21.60;74.20;;;;;;5109037;28;19919;-47
2023/09/30 13:47:38;;;;;;;;;;;21.60;74.20;;;;;;5100842;28;19908;-46
2023/09/30 13:50:06;;;;;;;;;;;21.50;74.10;;;;;;5102951;28;20347;-47
2023/09/30 13:52:35;;;;;;;;;;;21.60;74.20;;;;;;5095570;28;19943;-46
2023/09/30 13:55:01;;;;;;;;;;;21.60;74.20;;;;;;5100505;28;19915;-47
2023/09/30 13:57:27;;;;;;;;;;;21.50;74.20;;;;;;5113360;28;19951;-48
2023/09/30 13:59:55;;;;;;;;;;;21.60;74.20;;;;;;5123594;28;20478;-46
2023/09/30 14:02:20;;;;;;;;;;;21.50;74.20;;;;;;5123598;27;19919;-47
2023/09/30 14:04:46;;;;;;;;;;;21.50;74.30;;;;;;5123577;28;19920;-46
2023/09/30 14:07:12;;;;;;;;;;;21.50;74.20;;;;;;5120029;28;19939;-46
2023/09/30 14:09:38;;;;;;;;;;;21.50;74.20;;;;;;5116179;27;19914;-48
2023/09/30 14:12:04;;;;;;;;;;;21.60;74.30;;;;;;5116392;28;20454;-47
2023/09/30 14:14:31;;;;;;;;;;;21.50;74.20;;;;;;5116814;28;20599;-46
2023/09/30 14:16:57;;;;;;;;;;;21.60;74.30;;;;;;5114788;27;20710;-47